Terminal Aerodrome Forecast
Issued by NWS Pueblo, CO

Home | Current Version | Previous Version | Text Only | Print | Product List | Glossary On
Versions: 1 2 3 4 5 6 7 8 9 10 11 12 13 14 15 16 17 18 19 20 21 22 23 24 25 26 27 28 29 30 31 32 33 34 35 36 37 38 39 40 41 42 43 44 45 46 47 48 49 50
477
FTUS45 KPUB 231728
TAFPUB
TAF
KPUB 231728Z 2318/2418 VRB06KT P6SM SCT250
     FM232000 13008KT P6SM SKC
     FM240300 08007KT P6SM FEW020 BKN100
     FM240500 09007KT 5SM BR BKN020 OVC100
     FM240900 VRB06KT 3SM BR VCSH BKN002 OVC050
     FM241500 33006KT P6SM FEW100
     FM241700 30015G30KT P6SM SKC=

USA.gov is the U.S. government's official web portal to all federal, state and local government web resources and services.